Time;durP1;ratioP1;P1;durP2;ratioP2;P2;SDS_P1;SDS_P2;PMS_P1;PMS_P2;Temp;Humidity;BMP_temperature;BMP_pressure;BME280_temperature;BME280_humidity;BME280_pressure;Samples;Min_cycle;Max_cycle;Signal;HPM_P1;HPM_P2
2022/11/26 00:02:22;;;;;;;39.63;4.60;;;;;;;21.50;64.08;100035.84;7307398;19;129962;-38
2022/11/26 00:04:47;;;;;;;174.48;15.38;;;;;;;21.51;64.51;100032.28;7294888;19;131400;-37
2022/11/26 00:07:17;;;;;;;25.25;3.70;;;;;;;21.51;63.51;100032.28;7296461;19;130799;-37
2022/11/26 00:09:43;;;;;;;27.70;4.13;;;;;;;21.48;64.20;100035.19;7307749;19;131448;-38
2022/11/26 00:12:17;;;;;;;45.75;4.95;;;;;;;21.50;65.52;100037.66;7312105;19;129497;-35
2022/11/26 00:14:42;;;;;;;44.40;4.88;;;;;;;21.45;64.09;100038.03;7310114;19;130246;-36
2022/11/26 00:17:12;;;;;;;14.45;2.88;;;;;;;21.46;65.01;100034.47;7314131;19;129677;-37
2022/11/26 00:19:38;;;;;;;67.65;7.10;;;;;;;21.44;64.46;100039.00;7303686;19;130862;-37
2022/11/26 00:22:03;;;;;;;52.65;5.35;;;;;;;21.44;64.15;100039.00;7314569;19;129706;-37
2022/11/26 00:24:29;;;;;;;46.38;4.93;;;;;;;21.49;64.60;100044.66;7316184;19;130225;-37
2022/11/26 00:26:56;;;;;;;28.17;3.67;;;;;;;21.47;64.84;100046.56;7313152;19;130698;-37
2022/11/26 00:29:22;;;;;;;31.85;4.35;;;;;;;21.50;64.31;100051.53;7314492;19;130747;-37
2022/11/26 00:31:47;;;;;;;36.88;4.50;;;;;;;21.51;64.43;100049.78;7310931;19;129685;-38
2022/11/26 00:34:13;;;;;;;41.42;4.47;;;;;;;21.52;64.19;100054.88;7313336;19;129046;-37
2022/11/26 00:36:38;;;;;;;37.50;4.33;;;;;;;21.47;64.92;100057.03;7311772;19;129821;-37
2022/11/26 00:39:10;;;;;;;16.48;2.95;;;;;;;21.44;64.10;100057.31;7311680;19;129688;-36
2022/11/26 00:41:37;;;;;;;19.13;2.80;;;;;;;21.47;63.95;100061.47;7309730;19;130142;-38
2022/11/26 00:44:04;;;;;;;50.80;5.32;;;;;;;21.49;64.14;100065.59;7315555;19;129068;-36
2022/11/26 00:46:29;;;;;;;27.38;3.58;;;;;;;21.44;65.29;100057.31;7309594;19;130578;-37
2022/11/26 00:48:55;;;;;;;28.77;3.55;;;;;;;21.44;64.65;100062.53;7314068;19;130531;-36
2022/11/26 00:51:23;;;;;;;71.63;7.03;;;;;;;21.34;64.96;100055.56;7309815;19;129745;-37
2022/11/26 00:53:52;;;;;;;58.40;5.88;;;;;;;21.38;64.44;100070.91;7314325;19;130321;-37
2022/11/26 00:56:19;;;;;;;38.88;4.57;;;;;;;21.34;64.53;100077.31;7310995;19;129939;-37
2022/11/26 00:58:46;;;;;;;17.67;2.72;;;;;;;21.32;63.76;100079.22;7311855;19;129600;-36
2022/11/26 01:01:16;;;;;;;31.73;3.65;;;;;;;21.32;65.64;100081.84;7312897;19;129969;-37
2022/11/26 01:03:41;;;;;;;49.03;4.88;;;;;;;21.34;64.41;100085.16;7311999;19;130235;-36
2022/11/26 01:06:19;;;;;;;61.28;5.75;;;;;;;21.35;65.41;100084.22;7312115;19;130875;-37
2022/11/26 01:08:44;;;;;;;;;;;;;;;21.34;65.14;100086.94;7314661;19;131145;-37
2022/11/26 01:11:15;;;;;;;107.75;9.70;;;;;;;21.29;64.55;100089.09;7311169;19;129325;-36
2022/11/26 01:13:42;;;;;;;20.02;3.13;;;;;;;21.31;64.37;100093.28;7311417;19;130712;-37
2022/11/26 01:16:34;;;;;;;41.72;4.35;;;;;;;21.17;66.47;100080.47;7311344;19;129716;-37
2022/11/26 01:19:01;;;;;;;38.90;4.38;;;;;;;21.26;64.27;100090.22;7310798;19;129174;-38
2022/11/26 01:21:29;;;;;;;34.42;4.13;;;;;;;21.27;65.41;100088.44;7311712;19;129069;-37
2022/11/26 01:23:55;;;;;;;64.25;6.28;;;;;;;21.28;64.99;100096.16;7312041;19;129364;-38
2022/11/26 01:26:24;;;;;;;25.80;3.60;;;;;;;21.24;64.96;100096.50;7310576;19;129668;-36
2022/11/26 01:28:50;;;;;;;58.03;5.70;;;;;;;21.23;65.77;100095.69;7310784;19;129374;-38
2022/11/26 01:31:24;;;;;;;27.47;3.23;;;;;;;21.21;66.53;100102.81;7314151;19;129130;-37
2022/11/26 01:33:50;;;;;;;46.58;5.18;;;;;;;21.13;64.82;100084.31;7312229;19;129905;-37
2022/11/26 01:36:15;;;;;;;30.07;3.70;;;;;;;21.24;64.74;100106.97;7311503;19;129619;-37
2022/11/26 01:38:41;;;;;;;61.58;5.88;;;;;;;21.21;64.25;100102.81;7308526;19;129049;-38
2022/11/26 01:41:11;;;;;;;34.40;4.03;;;;;;;21.13;65.41;100081.69;7314188;19;129961;-37
2022/11/26 01:43:41;;;;;;;27.52;3.25;;;;;;;21.23;65.81;100105.31;7306443;19;131608;-35
2022/11/26 01:46:19;;;;;;;28.33;3.78;;;;;;;21.21;66.48;100108.06;7312632;19;129943;-36
2022/11/26 01:48:45;;;;;;;;;;;;;;;21.16;65.65;100115.44;7309698;19;129051;-37
2022/11/26 01:51:11;;;;;;;31.20;3.25;;;;;;;21.18;64.44;100113.53;7312622;19;129333;-37
2022/11/26 01:53:57;;;;;;;31.50;3.75;;;;;;;21.17;65.98;100113.66;7307725;19;129634;-36
2022/11/26 01:56:29;;;;;;;18.15;2.75;;;;;;;21.18;65.75;100123.16;7311427;19;131690;-37
2022/11/26 01:59:11;;;;;;;31.60;3.40;;;;;;;21.18;66.32;100134.47;7309471;19;128924;-38
2022/11/26 02:01:37;;;;;;;29.52;3.40;;;;;;;21.16;64.71;100125.91;7313758;19;129132;-35
2022/11/26 02:04:18;;;;;;;109.45;10.07;;;;;;;21.09;66.02;100123.91;7307741;19;129853;-37
2022/11/26 02:06:47;;;;;;;26.65;3.17;;;;;;;21.16;65.06;100136.34;7313419;19;130295;-37
2022/11/26 02:09:12;;;;;;;32.25;3.45;;;;;;;21.08;65.56;100120.47;7309079;19;129144;-37
2022/11/26 02:11:38;;;;;;;21.58;2.97;;;;;;;21.16;65.48;100136.34;7311778;19;130077;-38
2022/11/26 02:14:16;;;;;;;33.17;3.53;;;;;;;21.17;66.09;100143.22;7310798;19;130540;-36
2022/11/26 02:16:49;;;;;;;;;;;;;;;21.18;66.49;100144.91;7311683;19;130421;-38
2022/11/26 02:19:31;;;;;;;37.63;3.92;;;;;;;21.17;67.15;100140.63;7308214;19;128955;-37
2022/11/26 02:22:23;;;;;;;40.33;4.13;;;;;;;21.14;64.67;100143.50;7312917;19;130011;-38
2022/11/26 02:24:58;;;;;;;60.00;5.38;;;;;;;21.15;65.84;100144.31;7304927;19;130439;-38
2022/11/26 02:27:51;;;;;;;36.30;4.15;;;;;;;21.17;65.73;100148.47;7309496;19;130518;-37
2022/11/26 02:30:17;;;;;;;44.80;4.28;;;;;;;21.17;64.83;100145.03;7312510;19;129891;-37
2022/11/26 02:33:11;;;;;;;21.07;3.07;;;;;;;21.16;67.16;100162.50;7312763;19;129408;-38
2022/11/26 02:36:06;;;;;;;38.85;3.85;;;;;;;21.16;66.08;100156.44;7308142;19;130449;-37
2022/11/26 02:38:34;;;;;;;36.20;3.78;;;;;;;21.17;64.85;100164.16;7310930;19;133761;-37
2022/11/26 02:41:00;;;;;;;17.10;2.60;;;;;;;21.15;64.53;100154.78;7311801;19;130552;-38
2022/11/26 02:43:26;;;;;;;33.13;3.40;;;;;;;21.03;65.36;100148.75;7306950;19;128929;-37
2022/11/26 02:45:57;;;;;;;43.60;4.43;;;;;;;21.13;65.76;100167.16;7311753;19;130185;-35
2022/11/26 02:48:27;;;;;;;36.22;3.70;;;;;;;21.16;65.13;100172.13;7311696;19;129214;-36
2022/11/26 02:51:01;;;;;;;31.67;3.60;;;;;;;21.16;66.17;100178.19;7312186;19;129927;-37
2022/11/26 02:53:31;;;;;;;27.23;3.13;;;;;;;21.13;65.52;100188.91;7309940;19;130363;-38
2022/11/26 02:56:04;;;;;;;30.85;3.35;;;;;;;21.13;65.69;100182.84;7309721;19;131801;-38
2022/11/26 02:58:31;;;;;;;15.30;2.63;;;;;;;21.16;65.84;100187.81;7310857;19;130307;-35
2022/11/26 03:01:00;;;;;;;40.78;3.95;;;;;;;21.14;64.87;100194.97;7311214;19;129327;-36
2022/11/26 03:03:31;;;;;;;30.08;3.05;;;;;;;21.17;66.26;100190.31;7310543;19;129080;-37
2022/11/26 03:06:03;;;;;;;29.60;3.05;;;;;;;21.09;66.26;100177.00;7311217;19;130241;-37
2022/11/26 03:08:30;;;;;;;22.08;2.63;;;;;;;21.15;65.61;100194.00;7310226;19;130368;-36
2022/11/26 03:10:56;;;;;;;39.85;3.85;;;;;;;21.16;65.39;100193.88;7310328;19;129200;-37
2022/11/26 03:13:21;;;;;;;38.10;3.63;;;;;;;21.16;65.03;100193.03;7307984;19;129494;-36
2022/11/26 03:15:46;;;;;;;30.13;3.45;;;;;;;21.15;66.00;100202.69;7311561;19;129436;-37
2022/11/26 03:18:12;;;;;;;27.42;3.10;;;;;;;21.12;65.26;100199.47;7310403;19;130279;-37
2022/11/26 03:20:37;;;;;;;16.00;2.67;;;;;;;21.10;65.09;100212.69;7309789;19;129248;-38
2022/11/26 03:23:03;;;;;;;32.97;3.40;;;;;;;21.11;66.00;100210.88;7309740;19;128943;-34
2022/11/26 03:25:28;;;;;;;36.63;4.03;;;;;;;21.10;65.48;100215.28;7311377;19;129718;-38
2022/11/26 03:27:53;;;;;;;25.40;3.10;;;;;;;21.15;65.39;100223.59;7310023;19;130430;-37
2022/11/26 03:30:19;;;;;;;37.47;3.47;;;;;;;21.10;65.63;100223.13;7309936;19;129873;-36
2022/11/26 03:32:44;;;;;;;23.77;2.87;;;;;;;21.10;65.76;100220.53;7309702;19;129790;-38
2022/11/26 03:35:10;;;;;;;21.50;2.53;;;;;;;21.12;65.12;100233.47;7310360;19;130495;-38
2022/11/26 03:37:35;;;;;;;14.52;2.33;;;;;;;20.93;65.49;100214.91;7310992;19;130418;-37
2022/11/26 03:40:01;;;;;;;68.00;6.00;;;;;;;21.04;65.02;100238.47;7303147;19;129398;-37
2022/11/26 03:42:26;;;;;;;29.08;3.63;;;;;;;21.30;63.42;100238.09;7307899;19;130127;-38
2022/11/26 03:44:52;;;;;;;85.17;7.30;;;;;;;21.61;62.41;100237.28;7311260;19;129596;-36
2022/11/26 03:47:17;;;;;;;45.90;4.70;;;;;;;21.92;61.66;100241.69;7315386;19;129893;-37
2022/11/26 03:49:42;;;;;;;33.53;3.17;;;;;;;22.28;60.45;100242.22;7316379;19;130074;-37
2022/11/26 03:52:08;;;;;;;47.97;4.50;;;;;;;22.38;59.47;100216.94;7315807;19;129952;-37
2022/11/26 03:54:33;;;;;;;34.97;3.45;;;;;;;22.67;59.08;100223.16;7316694;19;129099;-38
2022/11/26 03:56:59;;;;;;;9.57;1.73;;;;;;;22.76;58.76;100238.09;7316448;19;129189;-37
2022/11/26 03:59:24;;;;;;;37.40;3.50;;;;;;;22.83;58.78;100234.81;7316098;19;129243;-37
2022/11/26 04:01:49;;;;;;;33.23;3.57;;;;;;;22.86;57.88;100217.97;7316608;19;129382;-38
2022/11/26 04:04:15;;;;;;;19.20;2.30;;;;;;;23.02;58.37;100244.56;7316352;19;129486;-38
2022/11/26 04:06:40;;;;;;;29.60;3.03;;;;;;;23.12;58.07;100243.59;7316706;19;129221;-36
2022/11/26 04:09:06;;;;;;;48.85;4.43;;;;;;;23.10;57.87;100247.34;7316431;19;129437;-36
2022/11/26 04:11:31;;;;;;;39.70;4.07;;;;;;;23.14;57.91;100248.72;7315263;19;129619;-38
2022/11/26 04:13:56;;;;;;;34.60;3.47;;;;;;;23.21;57.17;100255.09;7314943;19;130910;-37
2022/11/26 04:16:22;;;;;;;31.85;3.05;;;;;;;23.11;57.39;100238.50;7316270;19;129219;-38
2022/11/26 04:18:47;;;;;;;29.37;3.07;;;;;;;23.27;57.30;100253.78;7316726;19;128794;-37
2022/11/26 04:21:13;;;;;;;19.17;2.33;;;;;;;23.22;57.58;100259.41;7317256;19;129596;-36
2022/11/26 04:23:38;;;;;;;32.87;3.10;;;;;;;23.23;57.10;100258.44;7312421;19;130289;-37
2022/11/26 04:26:04;;;;;;;39.30;3.47;;;;;;;23.21;57.58;100262.97;7315433;19;129648;-36
2022/11/26 04:28:30;;;;;;;19.77;2.55;;;;;;;23.22;57.44;100252.34;7316566;19;129673;-37
2022/11/26 04:30:55;;;;;;;27.57;2.63;;;;;;;23.16;57.80;100262.53;7316323;19;129083;-35
2022/11/26 04:33:20;;;;;;;26.20;2.83;;;;;;;23.15;57.74;100260.91;7313849;19;129696;-35
2022/11/26 04:35:46;;;;;;;51.10;4.43;;;;;;;23.06;58.20;100266.91;7313938;19;129374;-36
2022/11/26 04:38:12;;;;;;;18.30;2.53;;;;;;;23.00;58.22;100275.31;7316609;19;129530;-37
2022/11/26 04:40:37;;;;;;;36.87;3.60;;;;;;;22.88;58.10;100279.84;7312936;19;130361;-38
2022/11/26 04:43:02;;;;;;;25.10;2.70;;;;;;;22.81;58.66;100288.34;7313751;19;130399;-34
2022/11/26 04:45:28;;;;;;;44.50;3.85;;;;;;;22.74;58.89;100287.22;7313089;19;129546;-37
2022/11/26 04:47:53;;;;;;;39.40;3.83;;;;;;;22.61;59.00;100289.22;7314151;19;129182;-37
2022/11/26 04:50:19;;;;;;;40.53;3.45;;;;;;;22.52;59.59;100292.56;7315496;19;128889;-36
2022/11/26 04:52:47;;;;;;;52.93;4.40;;;;;;;22.43;60.30;100298.59;7313271;19;130422;-38
2022/11/26 04:55:13;;;;;;;25.90;2.85;;;;;;;22.37;59.90;100315.66;7313953;19;130588;-35
2022/11/26 04:57:39;;;;;;;29.17;2.80;;;;;;;22.21;60.44;100288.22;7315224;19;129567;-36
2022/11/26 05:00:06;;;;;;;20.40;2.27;;;;;;;22.22;60.64;100316.06;7314914;19;129184;-36
2022/11/26 05:02:31;;;;;;;48.55;4.40;;;;;;;22.12;60.52;100325.63;7313017;19;130760;-36
2022/11/26 05:04:56;;;;;;;27.42;2.70;;;;;;;22.08;61.41;100324.25;7314563;19;130287;-37
2022/11/26 05:07:22;;;;;;;27.33;2.85;;;;;;;21.98;61.49;100331.19;7314173;19;129223;-36
2022/11/26 05:09:47;;;;;;;26.57;2.60;;;;;;;21.81;61.76;100317.66;7314585;19;129146;-37
2022/11/26 05:12:13;;;;;;;26.30;2.47;;;;;;;21.80;61.76;100336.94;7312276;19;130945;-36
2022/11/26 05:14:38;;;;;;;24.65;2.67;;;;;;;21.76;62.52;100332.91;7314390;19;131581;-38
2022/11/26 05:17:03;;;;;;;23.05;2.65;;;;;;;21.72;62.46;100334.06;7314438;19;129246;-37
2022/11/26 05:19:29;;;;;;;18.92;2.22;;;;;;;21.66;62.70;100337.19;7313096;19;130145;-37
2022/11/26 05:21:54;;;;;;;39.28;3.45;;;;;;;21.58;63.08;100342.19;7314117;19;129920;-37
2022/11/26 05:24:19;;;;;;;34.17;3.20;;;;;;;21.52;63.26;100340.03;7313942;19;129001;-35
2022/11/26 05:26:45;;;;;;;26.10;2.85;;;;;;;21.50;62.74;100354.22;7314788;19;129480;-39
2022/11/26 05:29:11;;;;;;;9.50;1.88;;;;;;;21.47;63.51;100350.03;7314440;19;129305;-37
2022/11/26 05:31:36;;;;;;;37.53;3.60;;;;;;;21.45;63.80;100351.94;7313384;19;130972;-37
2022/11/26 05:34:01;;;;;;;21.95;2.33;;;;;;;21.46;63.38;100353.63;7314510;19;129100;-37
2022/11/26 05:36:27;;;;;;;29.83;3.07;;;;;;;21.44;63.36;100349.44;7315256;19;129037;-36
2022/11/26 05:38:52;;;;;;;38.00;3.77;;;;;;;21.42;63.30;100351.38;7313480;19;129970;-38
2022/11/26 05:41:17;;;;;;;38.45;3.60;;;;;;;21.27;63.56;100342.91;7313084;19;130207;-36
2022/11/26 05:43:43;;;;;;;28.93;2.73;;;;;;;21.39;63.43;100360.28;7309980;19;129783;-38
2022/11/26 05:46:08;;;;;;;19.13;2.22;;;;;;;21.35;64.11;100366.72;7312585;19;129382;-38
2022/11/26 05:48:34;;;;;;;55.60;4.70;;;;;;;21.37;64.11;100367.41;7312776;19;128789;-37
2022/11/26 05:51:00;;;;;;;29.00;2.97;;;;;;;21.46;63.77;100366.69;7313327;19;129650;-38
2022/11/26 05:53:26;;;;;;;28.23;3.00;;;;;;;21.29;63.89;100346.25;7311276;19;129688;-39
2022/11/26 05:55:52;;;;;;;32.00;2.83;;;;;;;21.40;63.22;100364.53;7312551;19;128920;-36
2022/11/26 05:58:17;;;;;;;38.25;3.55;;;;;;;21.45;63.40;100380.72;7314117;19;130619;-37
2022/11/26 06:00:43;;;;;;;33.67;3.30;;;;;;;21.52;62.94;100374.06;7311479;19;130618;-37
2022/11/26 06:03:08;;;;;;;42.95;4.35;;;;;;;21.45;63.31;100367.63;7311394;19;130470;-38
2022/11/26 06:05:33;;;;;;;24.38;2.35;;;;;;;21.61;62.66;100383.81;7313164;19;129141;-38
2022/11/26 06:07:59;;;;;;;38.43;3.53;;;;;;;21.59;62.81;100390.94;7311802;19;130461;-37
2022/11/26 06:10:24;;;;;;;68.18;5.97;;;;;;;21.62;63.06;100389.84;7310639;19;129943;-37
2022/11/26 06:12:49;;;;;;;22.67;2.17;;;;;;;21.51;62.62;100375.03;7310874;19;129754;-36
2022/11/26 06:15:15;;;;;;;26.85;2.92;;;;;;;21.64;62.60;100395.81;7312258;19;128959;-37
2022/11/26 06:17:40;;;;;;;38.83;3.37;;;;;;;21.62;62.83;100395.94;7312448;19;129325;-36
2022/11/26 06:20:06;;;;;;;14.20;2.17;;;;;;;21.59;62.83;100395.34;7311028;19;129520;-37
2022/11/26 06:22:39;;;;;;;36.50;3.40;;;;;;;21.56;62.92;100406.88;7310400;19;131157;-37
2022/11/26 06:25:08;;;;;;;21.90;2.30;;;;;;;21.47;62.78;100389.28;7312593;19;130479;-36
2022/11/26 06:27:33;;;;;;;35.30;3.10;;;;;;;21.61;63.13;100415.22;7313781;19;129121;-37
2022/11/26 06:29:58;;;;;;;16.27;2.10;;;;;;;21.59;62.49;100411.88;7313553;19;128981;-37
2022/11/26 06:32:24;;;;;;;24.92;2.60;;;;;;;21.53;62.30;100401.91;7311948;19;129428;-36
2022/11/26 06:34:49;;;;;;;21.90;2.23;;;;;;;21.61;62.85;100415.22;7311795;19;129030;-37
2022/11/26 06:37:15;;;;;;;28.17;2.60;;;;;;;21.72;62.79;100424.81;7312742;19;129118;-39
2022/11/26 06:39:40;;;;;;;22.83;2.15;;;;;;;21.71;62.65;100421.41;7311315;19;129935;-37
2022/11/26 06:42:05;;;;;;;25.88;2.70;;;;;;;21.83;62.23;100427.47;7310300;19;129384;-35
2022/11/26 06:44:33;;;;;;;33.28;2.83;;;;;;;21.75;62.48;100430.66;7311820;19;130291;-37
2022/11/26 06:46:58;;;;;;;40.92;3.72;;;;;;;21.81;61.73;100445.94;7310172;19;129867;-37
2022/11/26 06:49:24;;;;;;;33.03;3.58;;;;;;;21.83;62.38;100438.75;7311332;19;129741;-37
2022/11/26 06:51:49;;;;;;;41.40;3.45;;;;;;;21.87;62.40;100442.81;7310836;19;129813;-37
2022/11/26 06:54:15;;;;;;;36.78;3.58;;;;;;;21.84;62.18;100448.31;7310830;19;128839;-39
2022/11/26 06:56:40;;;;;;;35.20;3.00;;;;;;;21.81;62.04;100450.31;7311737;19;129728;-37
2022/11/26 06:59:05;;;;;;;18.30;2.20;;;;;;;21.78;61.90;100454.00;7310163;19;129328;-37
2022/11/26 07:01:31;;;;;;;27.73;2.53;;;;;;;21.75;61.86;100456.81;7311916;19;129508;-37
2022/11/26 07:03:56;;;;;;;67.88;5.80;;;;;;;21.72;62.74;100459.69;7312182;19;129168;-38
2022/11/26 07:06:25;;;;;;;29.05;2.70;;;;;;;21.72;62.36;100464.09;7311081;19;130149;-36
2022/11/26 07:08:52;;;;;;;28.20;2.50;;;;;;;21.70;61.99;100466.81;7310881;19;130182;-37
2022/11/26 07:11:18;;;;;;;;;;;;;;;21.71;62.16;100468.50;7307592;19;129753;-37
2022/11/26 07:13:43;;;;;;;75.60;6.43;;;;;;;21.75;62.25;100469.91;7305843;19;129035;-36
2022/11/26 07:16:09;;;;;;;31.50;2.88;;;;;;;21.73;62.20;100471.81;7310304;19;129144;-38
2022/11/26 07:18:34;;;;;;;28.05;2.55;;;;;;;21.77;62.17;100475.06;7306705;19;130340;-37
2022/11/26 07:21:11;;;;;;;24.83;2.47;;;;;;;21.81;62.28;100477.34;7307709;19;130725;-37
2022/11/26 07:23:36;;;;;;;35.17;2.97;;;;;;;21.84;62.18;100471.88;7308092;19;129734;-38
2022/11/26 07:26:03;;;;;;;18.25;1.80;;;;;;;21.83;61.91;100478.03;7308619;19;129646;-37
2022/11/26 07:28:29;;;;;;;;;;;;;;;21.82;62.45;100481.63;7307511;19;129216;-37
2022/11/26 07:30:59;;;;;;;24.73;2.33;;;;;;;21.80;61.86;100465.19;7307669;19;129776;-36
2022/11/26 07:33:25;;;;;;;34.03;3.25;;;;;;;21.85;61.83;100481.38;7307973;19;129060;-38
2022/11/26 07:35:50;;;;;;;46.03;3.78;;;;;;;21.92;61.54;100487.78;7307408;19;130754;-37
2022/11/26 07:38:15;;;;;;;19.20;2.20;;;;;;;21.89;62.17;100490.66;7307822;19;130030;-37
2022/11/26 07:40:41;;;;;;;42.57;3.80;;;;;;;21.82;61.88;100486.84;7303205;19;129960;-36
2022/11/26 07:43:06;;;;;;;31.23;2.63;;;;;;;21.74;62.32;100472.66;7307760;19;130094;-36
2022/11/26 07:45:35;;;;;;;48.38;4.20;;;;;;;21.75;62.17;100495.28;7309014;19;129297;-35
2022/11/26 07:48:01;;;;;;;28.55;2.70;;;;;;;21.75;62.06;100506.56;7311134;19;130441;-37
2022/11/26 07:50:26;;;;;;;38.88;3.72;;;;;;;21.74;62.15;100509.28;7308137;19;129493;-37
2022/11/26 07:52:52;;;;;;;82.93;7.10;;;;;;;21.73;62.58;100508.44;7304853;19;130113;-37
2022/11/26 07:55:17;;;;;;;60.03;5.07;;;;;;;21.76;61.92;100507.41;7307060;19;130415;-35
2022/11/26 07:57:42;;;;;;;25.53;2.40;;;;;;;21.74;62.10;100504.91;7308551;19;130117;-37
2022/11/26 08:00:08;;;;;;;22.98;2.28;;;;;;;21.73;62.15;100508.44;7305116;19;131058;-38
2022/11/26 08:02:34;;;;;;;44.43;3.67;;;;;;;21.83;62.16;100509.44;7304738;19;131693;-37
2022/11/26 08:04:59;;;;;;;94.95;7.80;;;;;;;21.82;62.17;100513.03;7302907;19;130196;-36
2022/11/26 08:07:24;;;;;;;32.13;3.00;;;;;;;21.85;61.79;100523.25;7300684;19;130577;-37
2022/11/26 08:09:49;;;;;;;31.30;2.92;;;;;;;21.87;61.63;100526.59;7305872;19;132336;-37
2022/11/26 08:12:15;;;;;;;32.88;2.92;;;;;;;21.90;62.16;100521.13;7303499;19;129419;-37
2022/11/26 08:14:40;;;;;;;24.70;2.30;;;;;;;21.85;62.08;100533.72;7307232;19;129948;-36
2022/11/26 08:17:05;;;;;;;78.30;6.57;;;;;;;21.82;61.94;100527.88;7302756;19;129269;-38
2022/11/26 08:19:31;;;;;;;45.65;4.22;;;;;;;21.81;61.71;100527.06;7301445;19;130504;-36
2022/11/26 08:21:56;;;;;;;39.60;3.37;;;;;;;21.78;62.28;100529.09;7304655;19;130300;-37
2022/11/26 08:24:22;;;;;;;40.40;3.60;;;;;;;21.73;62.66;100542.47;7298000;19;130076;-35
2022/11/26 08:26:48;;;;;;;25.17;2.43;;;;;;;21.73;62.52;100537.25;7303504;19;130121;-37
2022/11/26 08:29:13;;;;;;;41.80;3.57;;;;;;;21.69;62.47;100535.84;7303970;19;129293;-36
2022/11/26 08:31:40;;;;;;;68.40;5.90;;;;;;;21.70;62.29;100534.88;7305646;19;130201;-37
2022/11/26 08:34:05;;;;;;;64.15;5.10;;;;;;;21.70;62.81;100540.09;7308894;19;129132;-39
2022/11/26 08:36:31;;;;;;;24.83;2.40;;;;;;;21.75;62.53;100550.25;7304428;19;131045;-36
2022/11/26 08:38:58;;;;;;;61.03;5.43;;;;;;;21.82;62.12;100544.44;7308920;19;130325;-37
2022/11/26 08:41:23;;;;;;;38.25;3.72;;;;;;;21.68;62.54;100531.53;7310942;19;130250;-36
2022/11/26 08:43:49;;;;;;;57.97;5.00;;;;;;;21.83;61.94;100550.50;7310813;19;129338;-38
2022/11/26 08:46:14;;;;;;;68.88;6.05;;;;;;;21.72;62.38;100540.81;7309154;19;131460;-37
2022/11/26 08:48:40;;;;;;;42.47;3.85;;;;;;;21.81;62.35;100557.66;7312745;19;130270;-36
2022/11/26 08:51:08;;;;;;;86.07;6.80;;;;;;;21.76;62.59;100547.53;7313478;19;130340;-36
2022/11/26 08:53:35;;;;;;;64.50;5.63;;;;;;;21.68;61.99;100542.00;7310120;19;129647;-36
2022/11/26 08:56:04;;;;;;;;;;;;;;;21.71;62.69;100557.50;7311049;19;131295;-35
2022/11/26 08:58:33;;;;;;;32.03;2.97;;;;;;;21.74;62.15;100559.03;7297580;19;131741;-37
2022/11/26 09:00:58;;;;;;;70.30;6.15;;;;;;;21.68;62.58;100569.97;7307673;19;130443;-38
2022/11/26 09:03:24;;;;;;;41.50;4.00;;;;;;;21.68;62.51;100568.16;7292091;19;130497;-37
2022/11/26 09:05:49;;;;;;;27.00;2.50;;;;;;;21.73;62.48;100571.28;7309605;19;130292;-36
2022/11/26 09:08:15;;;;;;;57.65;4.95;;;;;;;21.60;62.30;100554.84;7300555;19;131649;-38
2022/11/26 09:10:40;;;;;;;46.70;4.25;;;;;;;21.71;62.65;100581.06;7311391;19;129069;-38
2022/11/26 09:13:06;;;;;;;31.92;2.78;;;;;;;21.63;62.79;100565.09;7311670;19;129208;-37
2022/11/26 09:15:31;;;;;;;197.90;16.63;;;;;;;21.76;62.38;100581.56;7303664;19;130134;-37
2022/11/26 09:17:56;;;;;;;37.67;3.30;;;;;;;21.82;62.33;100586.31;7310585;19;131041;-37
2022/11/26 09:20:22;;;;;;;39.92;3.35;;;;;;;21.85;61.90;100578.22;7311494;19;129672;-37
2022/11/26 09:22:47;;;;;;;39.47;3.20;;;;;;;21.87;61.89;100581.56;7313025;19;129600;-36
2022/11/26 09:25:13;;;;;;;21.33;2.17;;;;;;;21.88;61.68;100590.25;7313885;19;129347;-37
2022/11/26 09:27:39;;;;;;;37.38;3.17;;;;;;;21.85;61.97;100593.94;7312685;19;130520;-37
2022/11/26 09:30:05;;;;;;;44.17;3.87;;;;;;;21.85;61.86;100587.84;7309834;19;130257;-36
2022/11/26 09:32:30;;;;;;;81.63;7.30;;;;;;;21.83;62.43;100585.34;7304540;19;131234;-38
2022/11/26 09:34:55;;;;;;;24.50;2.30;;;;;;;21.71;62.72;100588.91;7308214;19;132302;-37
2022/11/26 09:37:21;;;;;;;41.28;3.50;;;;;;;21.70;62.85;100592.44;7311974;19;130459;-38
2022/11/26 09:39:46;;;;;;;24.13;2.33;;;;;;;21.76;62.49;100597.28;7312881;19;129153;-36
2022/11/26 09:42:38;;;;;;;33.92;3.08;;;;;;;21.64;62.64;100577.22;7304100;19;129634;-37
2022/11/26 09:45:17;;;;;;;23.35;2.10;;;;;;;21.76;62.74;100602.50;7309960;19;130322;-37
2022/11/26 09:47:46;;;;;;;66.00;6.05;;;;;;;21.81;61.86;100602.16;7297071;19;131346;-37
2022/11/26 09:50:12;;;;;;;28.08;2.50;;;;;;;21.85;62.04;100611.41;7310263;19;129302;-36
2022/11/26 09:52:40;;;;;;;96.20;7.82;;;;;;;21.86;62.05;100603.47;7291262;19;130056;-37
2022/11/26 09:55:15;;;;;;;34.13;3.35;;;;;;;21.94;62.28;100601.09;7293161;19;131111;-36
2022/11/26 09:57:43;;;;;;;64.00;5.53;;;;;;;21.95;61.75;100601.91;7298721;19;130707;-37
2022/11/26 10:00:26;;;;;;;36.83;3.08;;;;;;;21.92;61.81;100612.63;7303442;19;129268;-36
2022/11/26 10:02:55;;;;;;;34.97;3.05;;;;;;;22.01;61.62;100611.09;7311173;19;129808;-36
2022/11/26 10:05:29;;;;;;;42.35;3.80;;;;;;;21.89;61.34;100612.88;7310701;19;129313;-37
2022/11/26 10:08:13;;;;;;;51.80;4.28;;;;;;;21.85;61.42;100612.25;7312811;19;129187;-38
2022/11/26 10:10:53;;;;;;;28.95;2.78;;;;;;;21.81;61.36;100615.25;7311961;19;129626;-37
2022/11/26 10:13:33;;;;;;;28.20;2.80;;;;;;;21.75;61.90;100616.50;7311732;19;129909;-38
2022/11/26 10:16:19;;;;;;;22.05;2.47;;;;;;;21.70;62.18;100602.91;7311641;19;129310;-38
2022/11/26 10:18:59;;;;;;;45.28;3.85;;;;;;;21.77;61.82;100617.25;7312386;19;130419;-37
2022/11/26 10:21:27;;;;;;;26.58;3.22;;;;;;;21.81;61.51;100616.06;7308679;19;128876;-37
2022/11/26 10:24:33;;;;;;;40.03;3.95;;;;;;;21.88;61.43;100617.25;7312516;19;128986;-37
2022/11/26 10:27:04;;;;;;;23.42;2.45;;;;;;;21.89;61.69;100624.19;7306816;19;129512;-38
2022/11/26 10:29:40;;;;;;;29.30;2.78;;;;;;;21.91;61.88;100622.25;7311703;19;129729;-37
2022/11/26 10:32:25;;;;;;;31.47;2.93;;;;;;;21.98;61.15;100625.28;7311672;19;129299;-36
2022/11/26 10:34:53;;;;;;;40.33;3.63;;;;;;;22.02;61.15;100623.22;7312426;19;128988;-36
2022/11/26 10:37:20;;;;;;;92.75;7.45;;;;;;;21.98;61.43;100626.09;7309930;19;129855;-37
2022/11/26 10:39:45;;;;;;;21.15;2.10;;;;;;;21.95;61.11;100623.69;7311301;19;130906;-38
2022/11/26 10:42:17;;;;;;;15.45;1.98;;;;;;;21.92;61.26;100636.19;7309108;19;129930;-37
2022/11/26 10:44:42;;;;;;;15.43;1.77;;;;;;;21.86;61.39;100627.03;7313193;19;129340;-37
2022/11/26 10:47:18;;;;;;;40.47;3.38;;;;;;;21.83;61.72;100639.53;7313517;19;129264;-36
2022/11/26 10:49:44;;;;;;;29.92;2.85;;;;;;;21.80;62.01;100632.72;7313511;19;130482;-37
2022/11/26 10:52:15;;;;;;;20.50;2.10;;;;;;;21.81;61.43;100633.56;7311616;19;129880;-37
2022/11/26 10:54:40;;;;;;;34.22;3.45;;;;;;;21.83;61.47;100635.09;7304681;19;129358;-37
2022/11/26 10:57:08;;;;;;;32.50;2.95;;;;;;;21.85;61.54;100641.06;7310888;19;129610;-37
2022/11/26 10:59:42;;;;;;;94.13;7.35;;;;;;;21.90;61.65;100636.31;7309282;19;130330;-36
2022/11/26 11:02:31;;;;;;;20.15;2.05;;;;;;;21.92;61.73;100638.81;7307941;19;130076;-37
2022/11/26 11:05:02;;;;;;;58.47;4.80;;;;;;;22.00;61.16;100641.66;7311252;19;128854;-36
2022/11/26 11:07:36;;;;;;;46.25;4.28;;;;;;;22.04;60.85;100642.28;7308391;19;130180;-36
2022/11/26 11:10:08;;;;;;;45.92;3.75;;;;;;;22.06;61.30;100646.47;7309417;19;130277;-36
2022/11/26 11:12:35;;;;;;;24.38;2.45;;;;;;;22.01;61.39;100647.75;7310548;19;129346;-37
2022/11/26 11:15:26;;;;;;;37.20;3.20;;;;;;;22.03;61.00;100645.84;7309784;19;129570;-37
2022/11/26 11:18:10;;;;;;;64.47;5.63;;;;;;;21.92;61.15;100649.28;7310635;19;129750;-35